createdAt,value
2019-05-06T00:02:08.929Z,2.60
2019-05-06T00:05:06.053Z,2.33
2019-05-06T00:07:39.439Z,2.27
2019-05-06T00:10:27.284Z,2.97
2019-05-06T00:13:01.119Z,2.70
2019-05-06T00:15:34.830Z,2.43
2019-05-06T00:18:20.563Z,2.47
2019-05-06T00:20:59.633Z,2.60
2019-05-06T00:23:44.971Z,2.40
2019-05-06T00:26:57.685Z,2.50
2019-05-06T00:29:31.714Z,2.60
2019-05-06T00:32:05.034Z,2.57
2019-05-06T00:34:38.617Z,2.60
2019-05-06T00:37:14.463Z,2.77
2019-05-06T00:40:05.965Z,2.73
2019-05-06T00:42:54.280Z,3.33
2019-05-06T00:45:29.542Z,2.80
2019-05-06T00:48:01.116Z,2.73
2019-05-06T00:50:39.171Z,3.30
2019-05-06T00:53:15.193Z,3.27
2019-05-06T00:55:48.800Z,3.30
2019-05-06T00:58:23.797Z,2.73
2019-05-06T01:00:55.363Z,3.10
2019-05-06T01:03:31.075Z,3.00
2019-05-06T01:06:07.975Z,3.07
2019-05-06T01:08:45.066Z,3.60
2019-05-06T01:11:18.020Z,3.13
2019-05-06T01:14:00.087Z,3.07
2019-05-06T01:16:34.472Z,3.13
2019-05-06T01:19:06.274Z,3.17
2019-05-06T01:21:39.499Z,3.80
2019-05-06T01:24:14.640Z,3.27
2019-05-06T01:26:47.690Z,2.93
2019-05-06T01:29:27.704Z,3.10
2019-05-06T01:32:00.439Z,3.33
2019-05-06T01:34:35.505Z,3.60
2019-05-06T01:37:15.645Z,3.70
2019-05-06T01:40:10.148Z,2.97
2019-05-06T01:42:54.788Z,3.60
2019-05-06T01:45:37.846Z,3.40
2019-05-06T01:48:14.275Z,3.10
2019-05-06T01:50:46.715Z,3.63
2019-05-06T01:53:24.160Z,3.93
2019-05-06T01:55:56.906Z,3.60
2019-05-06T01:58:29.545Z,3.53
2019-05-06T02:01:01.251Z,4.20
2019-05-06T02:03:34.716Z,3.63
2019-05-06T02:06:06.404Z,3.43
2019-05-06T02:08:44.548Z,3.70
2019-05-06T02:11:18.860Z,4.17
2019-05-06T02:13:50.512Z,3.30
2019-05-06T02:16:23.907Z,3.77
2019-05-06T02:18:57.247Z,3.80
2019-05-06T02:21:46.733Z,3.40
2019-05-06T02:24:46.733Z,3.40
2019-05-06T02:27:21.789Z,3.07
2019-05-06T02:30:05.425Z,3.97
2019-05-06T02:33:10.477Z,3.93
2019-05-06T02:35:57.641Z,3.67
2019-05-06T02:38:45.934Z,4.37
2019-05-06T02:41:09.066Z,3.53
2019-05-06T02:43:43.534Z,3.70
2019-05-06T02:46:16.103Z,3.40
2019-05-06T02:49:00.499Z,3.50
2019-05-06T02:51:36.668Z,3.67
2019-05-06T02:54:09.027Z,3.37
2019-05-06T02:56:53.107Z,3.30
2019-05-06T02:59:27.897Z,3.40
2019-05-06T03:02:03.761Z,3.80
2019-05-06T03:04:43.762Z,3.70
2019-05-06T03:07:17.689Z,3.90
2019-05-06T03:09:53.279Z,3.87
2019-05-06T03:12:26.257Z,3.80
2019-05-06T03:14:59.680Z,4.40
2019-05-06T03:17:32.835Z,4.07
2019-05-06T03:20:13.159Z,3.57
2019-05-06T03:23:04.147Z,3.50
2019-05-06T03:25:39.419Z,4.33
2019-05-06T03:28:13.248Z,4.30
2019-05-06T03:30:47.215Z,4.60
2019-05-06T03:33:45.115Z,4.23
2019-05-06T03:36:07.273Z,4.53
2019-05-06T03:38:33.209Z,4.53
2019-05-06T03:41:09.472Z,4.10
2019-05-06T03:43:46.129Z,4.40
2019-05-06T03:46:39.793Z,3.37
2019-05-06T03:49:14.810Z,3.33
2019-05-06T03:51:46.689Z,3.73
2019-05-06T03:54:23.050Z,3.67
2019-05-06T03:56:58.378Z,4.00
2019-05-06T03:59:33.873Z,3.73
2019-05-06T04:02:09.481Z,3.70
2019-05-06T04:04:46.310Z,3.57
2019-05-06T04:07:23.149Z,3.43
2019-05-06T04:09:55.742Z,4.17
2019-05-06T04:12:32.867Z,4.03
2019-05-06T04:15:14.164Z,3.87
2019-05-06T04:17:53.817Z,3.57
2019-05-06T04:20:48.126Z,4.00
2019-05-06T04:23:43.694Z,4.50
2019-05-06T04:26:29.546Z,3.50
2019-05-06T04:29:03.867Z,3.87
2019-05-06T04:31:35.261Z,3.77
2019-05-06T04:34:18.011Z,3.70
2019-05-06T04:36:45.277Z,4.60
2019-05-06T04:39:16.760Z,3.97
2019-05-06T04:41:48.927Z,3.87
2019-05-06T04:44:23.794Z,4.40
2019-05-06T04:46:56.477Z,4.23
2019-05-06T04:49:27.819Z,4.43
2019-05-06T04:51:59.485Z,5.10
2019-05-06T04:54:33.691Z,4.70
2019-05-06T04:57:06.828Z,4.10
2019-05-06T04:59:39.770Z,3.97
2019-05-06T05:02:13.252Z,4.60
2019-05-06T05:04:46.406Z,4.37
2019-05-06T05:07:18.904Z,4.80
2019-05-06T05:09:56.345Z,3.73
2019-05-06T05:12:33.862Z,3.77
2019-05-06T05:15:34.226Z,4.23
2019-05-06T05:18:33.089Z,4.07
2019-05-06T05:21:04.947Z,4.07
2019-05-06T05:23:38.827Z,4.20
2019-05-06T05:26:13.881Z,3.87
2019-05-06T05:28:47.605Z,3.50
2019-05-06T05:31:20.135Z,4.00
2019-05-06T05:33:54.266Z,4.20
2019-05-06T05:36:32.766Z,3.73
2019-05-06T05:39:18.626Z,4.10
2019-05-06T05:41:55.099Z,4.23
2019-05-06T05:44:36.693Z,3.47
2019-05-06T05:47:08.120Z,4.00
2019-05-06T05:49:58.584Z,3.83
2019-05-06T05:52:32.851Z,4.27
2019-05-06T05:55:05.073Z,4.30
2019-05-06T05:57:38.129Z,3.93
2019-05-06T06:00:12.918Z,4.30
2019-05-06T06:02:46.436Z,3.60
2019-05-06T06:05:17.730Z,3.27
2019-05-06T06:07:53.077Z,3.90
2019-05-06T06:10:52.575Z,3.77
2019-05-06T06:13:27.895Z,4.27
2019-05-06T06:16:17.186Z,4.40
2019-05-06T06:19:15.123Z,4.50
2019-05-06T06:21:57.887Z,4.07
2019-05-06T06:24:32.333Z,3.80
2019-05-06T06:27:07.025Z,4.67
2019-05-06T06:29:38.619Z,4.50
2019-05-06T06:32:25.260Z,3.80
2019-05-06T06:35:11.348Z,3.90
2019-05-06T06:38:04.357Z,4.40
2019-05-06T06:40:38.187Z,4.27
2019-05-06T06:43:16.786Z,3.53
2019-05-06T06:45:49.898Z,3.80
2019-05-06T06:48:23.176Z,3.70
2019-05-06T06:50:57.715Z,3.97
2019-05-06T06:53:29.550Z,3.73
2019-05-06T06:56:22.041Z,4.07
2019-05-06T06:59:07.834Z,4.17
2019-05-06T07:01:52.979Z,3.80
2019-05-06T07:04:38.342Z,4.20
2019-05-06T07:07:13.881Z,4.30
2019-05-06T07:09:45.959Z,5.03
2019-05-06T07:12:19.050Z,4.30
2019-05-06T07:14:53.174Z,4.07
2019-05-06T07:17:26.355Z,4.67
2019-05-06T07:20:04.846Z,5.23
2019-05-06T07:22:37.910Z,4.00
2019-05-06T07:25:12.806Z,4.57
2019-05-06T07:27:46.552Z,4.83
2019-05-06T07:30:23.002Z,4.73
2019-05-06T07:33:00.446Z,4.40
2019-05-06T07:35:40.510Z,4.17
2019-05-06T07:38:06.129Z,4.27
2019-05-06T07:40:37.864Z,3.37
2019-05-06T07:43:34.165Z,5.33
2019-05-06T07:46:14.372Z,3.83
2019-05-06T07:48:48.503Z,3.50
2019-05-06T07:51:39.067Z,4.90
2019-05-06T07:54:32.954Z,3.83
2019-05-06T07:57:09.719Z,4.83
2019-05-06T07:59:43.728Z,3.63
2019-05-06T08:02:16.996Z,4.17
2019-05-06T08:04:48.534Z,4.93
2019-05-06T08:07:26.499Z,4.27
2019-05-06T08:10:02.130Z,3.80
2019-05-06T08:12:34.602Z,4.03
2019-05-06T08:15:12.526Z,3.60
2019-05-06T08:17:43.617Z,4.37
2019-05-06T08:20:17.438Z,4.13
2019-05-06T08:23:02.262Z,3.50
2019-05-06T08:25:38.900Z,5.27
2019-05-06T08:28:10.294Z,3.37
2019-05-06T08:30:44.257Z,4.00
2019-05-06T08:33:18.216Z,3.63
2019-05-06T08:35:53.150Z,3.93
2019-05-06T08:38:34.117Z,4.20
2019-05-06T08:41:11.880Z,3.37
2019-05-06T08:43:45.241Z,3.20
2019-05-06T08:46:23.529Z,3.97
2019-05-06T08:48:56.096Z,3.83
2019-05-06T08:51:53.116Z,3.93
2019-05-06T08:54:43.350Z,3.37
2019-05-06T08:57:19.913Z,3.37
2019-05-06T08:59:56.211Z,3.90
2019-05-06T09:02:29.274Z,3.67
2019-05-06T09:05:02.742Z,3.20
2019-05-06T09:07:35.331Z,4.00
2019-05-06T09:10:08.627Z,3.90
2019-05-06T09:12:42.580Z,5.30
2019-05-06T09:15:16.237Z,5.77
2019-05-06T09:17:49.488Z,4.80
2019-05-06T09:20:23.386Z,4.80
2019-05-06T09:22:57.573Z,4.70
2019-05-06T09:25:32.254Z,3.27
2019-05-06T09:28:25.503Z,3.70
2019-05-06T09:31:09.802Z,3.50
2019-05-06T09:33:50.169Z,3.37
2019-05-06T09:36:39.793Z,4.70
2019-05-06T09:39:03.689Z,3.47
2019-05-06T09:41:35.537Z,3.90
2019-05-06T09:44:12.307Z,3.30
2019-05-06T09:46:45.109Z,3.80
2019-05-06T09:49:22.911Z,3.07
2019-05-06T09:51:58.352Z,2.87
2019-05-06T09:54:39.370Z,3.60
2019-05-06T09:57:17.182Z,2.87
2019-05-06T09:59:49.275Z,3.37
2019-05-06T10:02:23.081Z,2.67
2019-05-06T10:04:56.863Z,2.83
2019-05-06T10:07:30.960Z,3.33
2019-05-06T10:10:17.728Z,2.97
2019-05-06T10:12:52.887Z,2.60
2019-05-06T10:15:25.916Z,3.00
2019-05-06T10:18:13.482Z,2.60
2019-05-06T10:20:48.226Z,3.20
2019-05-06T10:23:19.759Z,3.37
2019-05-06T10:25:52.756Z,3.17
2019-05-06T10:28:33.573Z,3.20
2019-05-06T10:31:08.832Z,3.47
2019-05-06T10:33:58.046Z,2.97
2019-05-06T10:36:44.985Z,3.07
2019-05-06T10:39:19.311Z,2.67
2019-05-06T10:41:58.071Z,2.53
2019-05-06T10:44:55.740Z,3.27
2019-05-06T10:47:33.165Z,2.90
2019-05-06T10:50:07.006Z,3.30
2019-05-06T10:53:07.869Z,2.70
2019-05-06T10:55:43.937Z,3.00
2019-05-06T10:58:22.341Z,3.10
2019-05-06T11:01:12.638Z,2.60
2019-05-06T11:03:47.848Z,2.40
2019-05-06T11:06:22.041Z,3.10
2019-05-06T11:08:53.424Z,3.07
2019-05-06T11:11:35.155Z,3.23
2019-05-06T11:14:05.075Z,2.80
2019-05-06T11:16:38.521Z,2.80
2019-05-06T11:19:10.070Z,2.97
2019-05-06T11:21:45.201Z,2.70
2019-05-06T11:24:18.345Z,2.63
2019-05-06T11:26:53.270Z,2.80
2019-05-06T11:29:27.785Z,3.13
2019-05-06T11:32:17.847Z,3.20
2019-05-06T11:35:00.325Z,2.77
2019-05-06T11:37:47.079Z,3.10
2019-05-06T11:40:17.005Z,3.37
2019-05-06T11:42:49.337Z,2.97
2019-05-06T11:45:26.903Z,3.23
2019-05-06T11:48:03.881Z,3.47
2019-05-06T11:50:35.339Z,2.97
2019-05-06T11:53:06.758Z,3.17
2019-05-06T11:55:42.631Z,3.00
2019-05-06T11:58:33.404Z,4.33
2019-05-06T12:01:09.456Z,4.07
2019-05-06T12:03:43.061Z,3.10
2019-05-06T12:06:15.434Z,2.90
2019-05-06T12:08:53.444Z,2.97
2019-05-06T12:11:32.373Z,3.40
2019-05-06T12:14:05.743Z,3.70
2019-05-06T12:16:39.495Z,3.83
2019-05-06T12:19:13.110Z,3.47
2019-05-06T12:21:46.998Z,3.63
2019-05-06T12:24:18.684Z,3.53
2019-05-06T12:26:54.451Z,4.07
2019-05-06T12:29:28.299Z,3.33
2019-05-06T12:32:22.625Z,3.40
2019-05-06T12:34:58.427Z,3.00
2019-05-06T12:37:30.252Z,3.10
2019-05-06T12:40:03.466Z,2.83
2019-05-06T12:42:43.143Z,3.17
2019-05-06T12:45:39.334Z,2.90
2019-05-06T12:48:19.194Z,3.90
2019-05-06T12:50:52.559Z,2.63
2019-05-06T12:53:24.101Z,3.00
2019-05-06T12:55:58.221Z,2.90
2019-05-06T12:58:35.325Z,3.00
2019-05-06T13:01:08.929Z,2.80
2019-05-06T13:03:40.515Z,2.73
2019-05-06T13:06:16.223Z,2.80
2019-05-06T13:08:58.892Z,2.27
2019-05-06T13:11:25.083Z,2.57
2019-05-06T13:14:00.783Z,3.33
2019-05-06T13:16:35.655Z,2.60
2019-05-06T13:19:08.790Z,2.97
2019-05-06T13:21:46.624Z,3.10
2019-05-06T13:24:19.059Z,2.50
2019-05-06T13:26:58.821Z,2.83
2019-05-06T13:29:35.405Z,2.80
2019-05-06T13:32:07.430Z,3.10
2019-05-06T13:34:46.981Z,3.00
2019-05-06T13:37:23.069Z,2.70
2019-05-06T13:39:57.683Z,2.40
2019-05-06T13:42:35.587Z,3.13
2019-05-06T13:45:08.569Z,2.73
2019-05-06T13:47:59.258Z,2.60
2019-05-06T13:50:38.489Z,2.80
2019-05-06T13:53:14.651Z,3.10
2019-05-06T13:55:47.176Z,3.17
2019-05-06T13:58:23.528Z,2.57
2019-05-06T14:00:57.697Z,2.70
2019-05-06T14:03:29.194Z,2.20
2019-05-06T14:06:03.011Z,2.80
2019-05-06T14:08:37.182Z,2.57
2019-05-06T14:11:13.218Z,2.67
2019-05-06T14:13:47.621Z,2.50
2019-05-06T14:16:24.530Z,2.20
2019-05-06T14:18:56.469Z,2.60
2019-05-06T14:21:32.393Z,2.60
2019-05-06T14:24:07.934Z,2.67
2019-05-06T14:26:46.597Z,3.07
2019-05-06T14:29:32.917Z,2.33
2019-05-06T14:32:07.287Z,2.63
2019-05-06T14:34:43.121Z,2.87
2019-05-06T14:37:15.348Z,2.93
2019-05-06T14:39:58.559Z,3.30
2019-05-06T14:42:24.784Z,6.70
2019-05-06T14:44:56.561Z,4.37
2019-05-06T14:47:33.539Z,3.93
2019-05-06T14:50:09.208Z,3.10
2019-05-06T14:52:42.657Z,3.20
2019-05-06T14:55:22.561Z,3.77
2019-05-06T14:57:56.273Z,3.23
2019-05-06T15:00:27.975Z,3.40
2019-05-06T15:03:02.178Z,4.60
2019-05-06T15:05:36.299Z,3.83
2019-05-06T15:08:08.400Z,4.03
2019-05-06T15:10:40.128Z,3.90
2019-05-06T15:13:12.612Z,4.27
2019-05-06T15:15:46.798Z,5.00
2019-05-06T15:18:22.699Z,4.30
2019-05-06T15:20:54.860Z,3.80
2019-05-06T15:23:27.865Z,4.17
2019-05-06T15:26:03.761Z,5.03
2019-05-06T15:28:42.552Z,4.30
2019-05-06T15:31:23.361Z,4.60
2019-05-06T15:34:10.007Z,4.10
2019-05-06T15:37:03.406Z,4.03
2019-05-06T15:39:40.982Z,4.37
2019-05-06T15:42:13.287Z,5.17
2019-05-06T15:45:44.039Z,5.07
2019-05-06T15:48:15.837Z,4.70
2019-05-06T15:50:49.193Z,5.20
2019-05-06T15:53:22.501Z,4.40
2019-05-06T15:55:54.174Z,3.90
2019-05-06T15:58:28.395Z,4.20
2019-05-06T16:01:03.110Z,4.10
2019-05-06T16:03:36.592Z,4.10
2019-05-06T16:06:12.417Z,4.10
2019-05-06T16:08:44.926Z,4.00
2019-05-06T16:11:18.496Z,4.03
2019-05-06T16:13:53.289Z,4.30
2019-05-06T16:16:27.533Z,5.53
2019-05-06T16:18:59.059Z,4.10
2019-05-06T16:21:33.531Z,4.00
2019-05-06T16:24:12.946Z,4.23
2019-05-06T16:26:46.259Z,5.13
2019-05-06T16:29:22.472Z,4.40
2019-05-06T16:31:55.274Z,4.40
2019-05-06T16:34:32.340Z,4.37
2019-05-06T16:37:05.557Z,4.33
2019-05-06T16:39:38.741Z,4.60
2019-05-06T16:42:13.053Z,4.17
2019-05-06T16:44:46.939Z,4.57
2019-05-06T16:47:39.098Z,4.10
2019-05-06T16:50:15.204Z,4.80
2019-05-06T16:52:48.499Z,5.53
2019-05-06T16:55:28.215Z,4.17
2019-05-06T17:01:05.328Z,3.80
2019-05-06T17:03:44.745Z,3.90
2019-05-06T17:06:20.337Z,4.17
2019-05-06T17:08:53.711Z,3.60
2019-05-06T17:11:30.996Z,3.63
2019-05-06T17:14:03.055Z,3.83
2019-05-06T17:16:36.678Z,3.23
2019-05-06T17:19:10.050Z,3.40
2019-05-06T17:21:42.281Z,3.60
2019-05-06T17:24:16.496Z,3.43
2019-05-06T17:26:48.165Z,5.30
2019-05-06T17:29:38.890Z,7.40
2019-05-06T17:32:29.782Z,4.80
2019-05-06T17:35:08.288Z,4.43
2019-05-06T17:38:03.766Z,7.30
2019-05-06T17:40:37.107Z,3.60
2019-05-06T17:43:13.039Z,3.83
2019-05-06T17:46:02.857Z,4.17
2019-05-06T17:48:52.826Z,3.83
2019-05-06T17:51:37.167Z,4.67
2019-05-06T17:54:09.418Z,4.17
2019-05-06T17:56:42.561Z,5.10
2019-05-06T17:59:16.129Z,3.83
2019-05-06T18:01:53.201Z,4.40
2019-05-06T18:04:25.872Z,3.17
2019-05-06T18:06:57.213Z,4.50
2019-05-06T18:09:29.065Z,4.27
2019-05-06T18:12:03.194Z,4.07
2019-05-06T18:14:37.760Z,4.47
2019-05-06T18:17:12.309Z,4.43
2019-05-06T18:19:46.324Z,4.37
2019-05-06T18:22:22.709Z,4.33
2019-05-06T18:24:54.074Z,4.23
2019-05-06T18:27:29.129Z,5.07
2019-05-06T18:30:12.313Z,4.13
2019-05-06T18:32:38.965Z,4.07
2019-05-06T18:35:13.094Z,4.20
2019-05-06T18:37:44.911Z,4.67
2019-05-06T18:40:19.384Z,4.60
2019-05-06T18:42:52.769Z,4.13
2019-05-06T18:45:25.299Z,4.47
2019-05-06T18:47:57.302Z,4.13
2019-05-06T18:50:28.718Z,5.20
2019-05-06T18:53:02.765Z,4.57
2019-05-06T18:55:35.908Z,4.23
2019-05-06T18:58:10.273Z,4.70
2019-05-06T19:00:45.050Z,4.10
2019-05-06T19:03:18.478Z,4.93
2019-05-06T19:05:49.805Z,4.63
2019-05-06T19:08:32.850Z,4.43
2019-05-06T19:11:12.396Z,4.93
2019-05-06T19:13:45.881Z,5.40
2019-05-06T19:16:22.208Z,4.53
2019-05-06T19:18:57.226Z,4.60
2019-05-06T19:21:28.692Z,5.13
2019-05-06T19:24:02.810Z,5.67
2019-05-06T19:26:34.132Z,6.17
2019-05-06T19:29:07.086Z,5.67
2019-05-06T19:31:38.392Z,4.50
2019-05-06T19:34:12.951Z,4.90
2019-05-06T19:36:45.215Z,5.47
2019-05-06T19:39:18.630Z,6.13
2019-05-06T19:41:50.325Z,4.70
2019-05-06T19:44:24.492Z,5.57
2019-05-06T19:46:58.549Z,5.20
2019-05-06T19:49:32.916Z,5.50
2019-05-06T19:52:05.450Z,5.17
2019-05-06T19:54:42.347Z,5.50
2019-05-06T19:57:16.546Z,5.80
2019-05-06T19:59:49.532Z,4.90
2019-05-06T20:03:28.624Z,5.03
2019-05-06T20:06:37.720Z,5.43
2019-05-06T20:09:25.394Z,5.40
2019-05-06T20:12:00.038Z,6.07
2019-05-06T20:14:32.786Z,5.40
2019-05-06T20:17:07.016Z,5.53
2019-05-06T20:20:09.803Z,4.87
2019-05-06T20:22:42.240Z,5.30
2019-05-06T20:25:16.408Z,5.30
2019-05-06T20:28:22.789Z,5.10
2019-05-06T20:30:56.629Z,5.47
2019-05-06T20:33:28.832Z,4.87
2019-05-06T20:36:02.057Z,5.37
2019-05-06T20:38:35.545Z,5.47
2019-05-06T20:41:08.584Z,5.27
2019-05-06T20:43:44.226Z,5.17
2019-05-06T20:46:16.838Z,5.77
2019-05-06T20:48:50.077Z,5.30
2019-05-06T20:51:22.062Z,5.13
2019-05-06T20:53:57.991Z,5.23
2019-05-06T20:56:29.436Z,4.90
2019-05-06T20:59:03.502Z,5.30
2019-05-06T21:01:37.776Z,5.37
2019-05-06T21:04:09.801Z,5.00
2019-05-06T21:06:42.806Z,5.40
2019-05-06T21:09:16.285Z,5.60
2019-05-06T21:11:49.416Z,5.20
2019-05-06T21:14:22.848Z,5.73
2019-05-06T21:16:57.307Z,4.80
2019-05-06T21:19:28.665Z,4.80
2019-05-06T21:22:03.407Z,5.40
2019-05-06T21:24:38.438Z,5.90
2019-05-06T21:27:12.232Z,5.90
2019-05-06T21:29:44.039Z,5.47
2019-05-06T21:32:17.657Z,5.17
2019-05-06T21:34:52.513Z,5.13
2019-05-06T21:37:24.107Z,6.00
2019-05-06T21:39:57.081Z,5.90
2019-05-06T21:42:29.326Z,5.87
2019-05-06T21:45:03.270Z,5.50
2019-05-06T21:47:36.670Z,5.43
2019-05-06T21:50:11.928Z,6.20
2019-05-06T21:52:44.465Z,5.73
2019-05-06T21:55:16.958Z,4.93
2019-05-06T21:57:48.960Z,5.53
2019-05-06T22:00:23.808Z,6.13
2019-05-06T22:02:56.736Z,5.20
2019-05-06T22:05:28.057Z,6.00
2019-05-06T22:08:01.905Z,5.67
2019-05-06T22:10:33.741Z,6.00
2019-05-06T22:13:08.407Z,5.97
2019-05-06T22:15:41.923Z,6.27
2019-05-06T22:18:15.296Z,6.10
2019-05-06T22:21:04.346Z,5.40
2019-05-06T22:23:52.301Z,6.53
2019-05-06T22:26:28.066Z,6.00
2019-05-06T22:29:02.237Z,6.27
2019-05-06T22:31:37.791Z,5.30
2019-05-06T22:34:09.216Z,5.70
2019-05-06T22:36:42.646Z,6.30
2019-05-06T22:39:16.009Z,5.40
2019-05-06T22:41:47.637Z,5.80
2019-05-06T22:44:22.789Z,5.40
2019-05-06T22:46:54.953Z,5.50
2019-05-06T22:49:27.993Z,6.17
2019-05-06T22:52:02.909Z,5.40
2019-05-06T22:54:36.107Z,5.77
2019-05-06T22:57:12.636Z,5.80
2019-05-06T22:59:46.115Z,5.03
2019-05-06T23:02:32.726Z,4.90
2019-05-06T23:05:09.658Z,5.50
2019-05-06T23:07:42.266Z,5.83
2019-05-06T23:10:13.984Z,5.33
2019-05-06T23:12:47.307Z,5.17
2019-05-06T23:15:19.290Z,5.87
2019-05-06T23:17:52.231Z,5.07
2019-05-06T23:20:26.443Z,5.23
2019-05-06T23:22:58.164Z,5.30
2019-05-06T23:25:32.659Z,4.73
2019-05-06T23:28:04.519Z,5.70
2019-05-06T23:30:37.526Z,5.60
2019-05-06T23:33:11.797Z,4.70
2019-05-06T23:35:45.642Z,5.57
2019-05-06T23:38:52.779Z,6.23
2019-05-06T23:42:00.176Z,5.37
2019-05-06T23:45:09.531Z,4.73
2019-05-06T23:48:16.571Z,5.13
2019-05-06T23:51:25.339Z,5.20
2019-05-06T23:54:32.914Z,4.87
2019-05-06T23:57:04.205Z,5.30
2019-05-06T23:59:37.494Z,4.97
